createdAt,value
2023-02-07T00:01:23.855Z,25.16
2023-02-07T00:03:52.158Z,25.12
2023-02-07T00:06:25.330Z,24.97
2023-02-07T00:08:53.472Z,24.73
2023-02-07T00:11:23.539Z,24.58
2023-02-07T00:13:53.957Z,24.54
2023-02-07T00:16:22.267Z,24.37
2023-02-07T00:18:49.835Z,24.36
2023-02-07T00:21:20.915Z,24.01
2023-02-07T00:23:48.618Z,23.95
2023-02-07T00:26:17.302Z,24.08
2023-02-07T00:28:45.066Z,23.91
2023-02-07T00:31:15.938Z,23.72
2023-02-07T00:33:44.824Z,23.77
2023-02-07T00:36:15.224Z,23.67
2023-02-07T00:38:43.023Z,23.50
2023-02-07T00:52:36.021Z,23.62
2023-02-07T00:59:08.233Z,23.44
2023-02-07T01:02:04.900Z,23.41
2023-02-07T01:04:32.250Z,23.71
2023-02-07T01:06:59.607Z,23.56
2023-02-07T01:09:26.913Z,23.42
2023-02-07T01:11:54.262Z,23.50
2023-02-07T01:14:21.602Z,23.53
2023-02-07T01:16:49.757Z,23.82
2023-02-07T01:19:18.553Z,23.86
2023-02-07T01:21:46.202Z,23.73
2023-02-07T01:24:13.400Z,23.40
2023-02-07T01:26:41.546Z,23.38
2023-02-07T01:29:10.583Z,23.64
2023-02-07T01:31:38.042Z,23.83
2023-02-07T01:34:05.887Z,24.04
2023-02-07T01:36:33.213Z,23.93
2023-02-07T01:39:00.349Z,23.80
2023-02-07T01:41:28.255Z,23.41
2023-02-07T01:44:05.835Z,23.12
2023-02-07T01:46:35.614Z,22.83
2023-02-07T01:49:09.057Z,22.77
2023-02-07T01:51:38.022Z,22.72
2023-02-07T01:54:10.545Z,22.65
2023-02-07T01:56:42.363Z,22.51
2023-02-07T01:59:09.593Z,22.57
2023-02-07T02:05:30.703Z,22.64
2023-02-07T02:09:17.487Z,22.85
2023-02-07T02:12:55.692Z,22.58
2023-02-07T02:16:29.088Z,22.48
2023-02-07T02:19:48.259Z,22.32
2023-02-07T02:23:39.369Z,22.26
2023-02-07T02:27:21.803Z,22.36
2023-02-07T02:31:12.790Z,22.51
2023-02-07T02:34:16.002Z,22.62
2023-02-07T02:37:36.657Z,22.52
2023-02-07T02:41:10.934Z,22.79
2023-02-07T02:45:00.676Z,23.05
2023-02-07T02:48:10.416Z,23.16
2023-02-07T02:51:57.602Z,23.08
2023-02-07T02:55:36.377Z,22.86
2023-02-07T02:59:14.796Z,23.25
2023-02-07T03:02:41.080Z,23.31
2023-02-07T03:05:36.260Z,23.64
2023-02-07T03:08:48.565Z,23.48
2023-02-07T03:12:21.706Z,23.22
2023-02-07T03:16:02.324Z,23.10
2023-02-07T03:19:35.042Z,22.77
2023-02-07T03:23:02.761Z,22.42
2023-02-07T03:26:28.625Z,22.21
2023-02-07T03:29:59.794Z,22.14
2023-02-07T03:33:46.696Z,21.95
2023-02-07T03:37:13.688Z,22.03
2023-02-07T03:40:40.716Z,22.01
2023-02-07T03:44:13.853Z,22.11
2023-02-07T03:48:01.018Z,22.26
2023-02-07T03:51:39.316Z,22.29
2023-02-07T03:55:20.600Z,22.39
2023-02-07T03:59:00.855Z,22.84
2023-02-07T04:02:50.385Z,22.93
2023-02-07T05:07:40.551Z,23.81
2023-02-07T05:10:08.009Z,24.71
2023-02-07T05:12:35.070Z,27.19
2023-02-07T05:15:02.372Z,30.79
2023-02-07T05:17:30.987Z,36.87
2023-02-07T05:19:58.114Z,37.80
2023-02-07T05:22:26.117Z,35.13
2023-02-07T05:24:53.295Z,33.31
2023-02-07T05:27:20.603Z,32.58
2023-02-07T05:29:48.215Z,31.90
2023-02-07T05:32:35.631Z,31.07
2023-02-07T05:35:03.196Z,30.73
2023-02-07T05:37:30.374Z,30.76
2023-02-07T05:39:57.672Z,30.65
2023-02-07T05:42:25.091Z,30.56
2023-02-07T05:44:52.817Z,30.62
2023-02-07T05:47:20.068Z,30.56
2023-02-07T05:49:47.215Z,30.59
2023-02-07T05:52:14.397Z,30.65
2023-02-07T05:54:42.108Z,30.87
2023-02-07T05:57:09.445Z,30.68
2023-02-07T05:59:36.612Z,30.64
2023-02-07T06:02:03.745Z,31.09
2023-02-07T06:04:31.278Z,31.19
2023-02-07T06:06:58.385Z,31.89
2023-02-07T06:09:26.009Z,32.73
2023-02-07T06:11:53.331Z,32.66
2023-02-07T06:14:20.755Z,32.63
2023-02-07T06:16:47.941Z,32.38
2023-02-07T06:19:15.556Z,32.33
2023-02-07T06:21:46.826Z,31.90
2023-02-07T06:24:16.144Z,31.71
2023-02-07T06:26:44.240Z,31.30
2023-02-07T06:29:11.655Z,31.15
2023-02-07T06:31:38.983Z,31.50
2023-02-07T06:34:07.116Z,31.61
2023-02-07T06:36:34.412Z,31.71
2023-02-07T06:39:01.591Z,31.31
2023-02-07T06:41:29.158Z,31.19
2023-02-07T06:43:56.931Z,30.87
2023-02-07T06:46:24.319Z,30.97
2023-02-07T06:48:51.857Z,31.40
2023-02-07T06:51:19.065Z,31.32
2023-02-07T06:53:46.245Z,31.12
2023-02-07T06:56:13.664Z,31.35
2023-02-07T06:58:40.765Z,31.37
2023-02-07T07:01:08.348Z,31.25
2023-02-07T07:03:36.372Z,30.96
2023-02-07T07:06:03.516Z,30.92
2023-02-07T07:08:30.902Z,30.74
2023-02-07T07:10:58.337Z,30.76
2023-02-07T07:13:25.595Z,31.03
2023-02-07T07:15:52.871Z,31.41
2023-02-07T07:18:20.266Z,32.02
2023-02-07T07:20:47.568Z,32.76
2023-02-07T07:23:14.847Z,32.94
2023-02-07T07:25:42.433Z,32.93
2023-02-07T07:28:09.617Z,33.01
2023-02-07T07:30:36.803Z,32.98
2023-02-07T07:33:04.490Z,33.36
2023-02-07T07:35:32.599Z,33.15
2023-02-07T07:37:59.937Z,33.43
2023-02-07T07:40:27.352Z,33.53
2023-02-07T07:42:54.653Z,33.46
2023-02-07T07:45:22.022Z,33.34
2023-02-07T07:47:49.294Z,34.09
2023-02-07T07:50:16.458Z,34.38
2023-02-07T07:52:43.633Z,34.34
2023-02-07T07:55:11.685Z,34.30
2023-02-07T07:57:39.072Z,35.15
2023-02-07T08:00:06.892Z,35.21
2023-02-07T08:02:34.241Z,34.69
2023-02-07T08:05:01.903Z,33.97
2023-02-07T08:07:29.068Z,33.97
2023-02-07T08:09:56.305Z,34.13
2023-02-07T08:12:23.463Z,34.32
2023-02-07T08:14:50.756Z,34.14
2023-02-07T08:17:18.039Z,34.12
2023-02-07T08:19:45.327Z,33.60
2023-02-07T08:22:14.832Z,33.16
2023-02-07T08:24:43.210Z,35.46
2023-02-07T08:27:10.460Z,38.24
2023-02-07T08:29:37.701Z,41.58
2023-02-07T08:32:05.908Z,40.71
2023-02-07T08:34:37.826Z,42.72
2023-02-07T08:37:09.992Z,46.24
2023-02-07T08:39:37.241Z,47.33
2023-02-07T08:42:05.913Z,51.02
2023-02-07T08:44:33.733Z,50.32
2023-02-07T08:47:01.132Z,57.70
2023-02-07T08:49:28.355Z,59.74
2023-02-07T08:51:55.510Z,54.07
2023-02-07T08:54:22.715Z,48.40
2023-02-07T08:56:49.805Z,45.42
2023-02-07T08:59:16.994Z,43.73
2023-02-07T09:01:44.342Z,42.32
2023-02-07T09:04:12.100Z,41.59
2023-02-07T09:06:40.463Z,40.62
2023-02-07T09:09:08.300Z,40.09
2023-02-07T09:11:35.654Z,39.79
2023-02-07T09:14:02.975Z,39.14
2023-02-07T09:16:30.288Z,39.04
2023-02-07T09:18:57.538Z,38.17
2023-02-07T09:21:24.872Z,37.05
2023-02-07T09:23:54.372Z,34.74
2023-02-07T09:26:23.455Z,36.03
2023-02-07T09:28:50.688Z,39.24
2023-02-07T09:31:18.107Z,41.99
2023-02-07T09:33:45.430Z,41.49
2023-02-07T09:36:43.995Z,44.56
2023-02-07T09:39:11.310Z,47.06
2023-02-07T09:42:16.109Z,49.40
2023-02-07T09:44:46.808Z,51.09
2023-02-07T09:47:17.249Z,50.75
2023-02-07T09:49:51.629Z,52.35
2023-02-07T09:52:34.262Z,53.31
2023-02-07T09:55:03.344Z,53.74
2023-02-07T09:57:46.400Z,54.36
2023-02-07T10:00:38.098Z,54.66
2023-02-07T10:03:11.745Z,54.82
2023-02-07T10:05:52.452Z,56.21
2023-02-07T10:08:21.272Z,57.54
2023-02-07T10:11:23.608Z,67.76
2023-02-07T10:14:12.623Z,65.09
2023-02-07T10:16:48.269Z,56.97
2023-02-07T10:19:22.303Z,52.73
2023-02-07T10:22:17.522Z,49.77
2023-02-07T10:24:58.585Z,47.30
2023-02-07T10:27:37.756Z,45.44
2023-02-07T10:30:16.358Z,42.35
2023-02-07T10:32:47.406Z,42.63
2023-02-07T10:35:25.570Z,44.58
2023-02-07T10:37:57.590Z,47.16
2023-02-07T10:40:26.926Z,48.28
2023-02-07T10:43:07.562Z,51.24
2023-02-07T10:45:34.853Z,51.35
2023-02-07T10:48:02.228Z,52.64
2023-02-07T10:50:41.644Z,52.99
2023-02-07T10:53:09.606Z,54.61
2023-02-07T10:55:48.632Z,55.31
2023-02-07T10:58:23.253Z,56.03
2023-02-07T11:00:55.422Z,57.06
2023-02-07T11:03:27.077Z,58.73
2023-02-07T11:06:02.995Z,59.02
2023-02-07T11:08:35.972Z,61.72
2023-02-07T11:11:23.585Z,65.91
2023-02-07T11:13:53.652Z,69.42
2023-02-07T11:16:23.735Z,63.22
2023-02-07T11:19:16.791Z,55.26
2023-02-07T11:21:46.112Z,51.08
2023-02-07T11:24:18.119Z,51.43
2023-02-07T11:27:04.811Z,53.70
2023-02-07T11:29:34.571Z,54.74
2023-02-07T11:32:03.703Z,54.22
2023-02-07T11:34:53.418Z,55.87
2023-02-07T11:37:32.806Z,59.60
2023-02-07T11:40:22.595Z,65.58
2023-02-07T11:42:57.532Z,66.71
2023-02-07T11:45:25.572Z,58.96
2023-02-07T11:47:56.312Z,52.43
2023-02-07T11:50:32.535Z,52.58
2023-02-07T11:53:00.987Z,53.37
2023-02-07T11:55:40.668Z,54.24
2023-02-07T11:58:18.455Z,56.71
2023-02-07T12:00:47.719Z,56.88
2023-02-07T12:03:27.234Z,58.69
2023-02-07T12:06:01.775Z,59.02
2023-02-07T12:08:34.689Z,59.51
2023-02-07T12:11:19.560Z,60.53
2023-02-07T12:13:58.397Z,60.98
2023-02-07T12:16:40.526Z,66.20
2023-02-07T12:19:15.216Z,70.35
2023-02-07T12:21:48.897Z,63.18
2023-02-07T12:24:54.799Z,54.38
2023-02-07T12:27:32.957Z,51.40
2023-02-07T12:30:12.448Z,53.49
2023-02-07T12:32:56.689Z,54.90
2023-02-07T12:36:04.441Z,56.83
2023-02-07T12:38:39.074Z,57.29
2023-02-07T12:41:42.721Z,58.20
2023-02-07T12:44:29.059Z,58.34
2023-02-07T12:47:20.169Z,60.13
2023-02-07T12:50:18.227Z,64.33
2023-02-07T12:53:09.416Z,69.07
2023-02-07T12:56:04.486Z,61.98
2023-02-07T12:58:41.576Z,53.91
2023-02-07T13:01:25.333Z,52.33
2023-02-07T13:04:10.102Z,54.18
2023-02-07T13:07:00.700Z,54.85
2023-02-07T13:09:41.493Z,58.50
2023-02-07T13:12:23.049Z,58.95
2023-02-07T13:15:17.924Z,59.04
2023-02-07T13:18:07.468Z,65.23
2023-02-07T13:20:41.020Z,65.46
2023-02-07T13:23:34.482Z,61.75
2023-02-07T13:26:11.456Z,53.67
2023-02-07T13:29:05.926Z,51.63
2023-02-07T13:31:44.925Z,52.91
2023-02-07T13:34:20.603Z,54.87
2023-02-07T13:36:51.020Z,56.14
2023-02-07T13:39:42.850Z,60.46
2023-02-07T13:42:31.728Z,58.76
2023-02-07T13:45:27.981Z,63.74
2023-02-07T13:48:12.330Z,66.37
2023-02-07T13:50:55.066Z,62.11
2023-02-07T13:53:31.639Z,54.25
2023-02-07T13:56:09.597Z,52.84
2023-02-07T13:58:55.564Z,55.11
2023-02-07T14:01:25.545Z,56.37
2023-02-07T14:04:20.225Z,58.62
2023-02-07T14:07:04.177Z,57.99
2023-02-07T14:09:52.264Z,58.72
2023-02-07T14:12:25.661Z,59.85
2023-02-07T14:15:02.500Z,65.05
2023-02-07T14:17:30.929Z,67.41
2023-02-07T14:20:04.076Z,62.27
2023-02-07T14:22:52.698Z,55.87
2023-02-07T14:25:41.745Z,52.92
2023-02-07T14:28:35.038Z,53.76
2023-02-07T14:31:20.465Z,55.37
2023-02-07T14:34:12.976Z,57.38
2023-02-07T14:36:41.801Z,58.83
2023-02-07T14:39:21.076Z,60.25
2023-02-07T14:41:51.849Z,60.75
2023-02-07T14:44:38.599Z,66.01
2023-02-07T14:47:08.081Z,67.51
2023-02-07T14:50:39.627Z,62.83
2023-02-07T14:54:11.041Z,53.69
2023-02-07T14:57:43.601Z,53.16
2023-02-07T15:01:31.402Z,55.60
2023-02-07T15:05:19.401Z,57.61
2023-02-07T15:09:07.068Z,59.87
2023-02-07T15:12:55.913Z,58.99
2023-02-07T15:16:46.480Z,69.05
2023-02-07T15:20:33.645Z,62.94
2023-02-07T15:24:21.193Z,53.71
2023-02-07T15:28:15.564Z,53.84
2023-02-07T15:32:20.758Z,55.98
2023-02-07T15:36:08.485Z,56.85
2023-02-07T15:39:55.983Z,58.19
2023-02-07T15:44:10.648Z,58.65
2023-02-07T15:48:10.200Z,59.37
2023-02-07T15:51:42.356Z,60.43
2023-02-07T15:55:30.138Z,61.27
2023-02-07T15:59:19.390Z,71.42
2023-02-07T16:03:07.114Z,64.24
2023-02-07T16:06:55.887Z,55.17
2023-02-07T16:10:56.302Z,54.72
2023-02-07T16:14:53.337Z,56.71
2023-02-07T16:18:44.000Z,58.16
2023-02-07T16:22:33.488Z,59.13
2023-02-07T16:26:21.240Z,58.80
2023-02-07T16:29:59.005Z,60.27
2023-02-07T16:33:31.183Z,61.21
2023-02-07T16:37:19.257Z,71.15
2023-02-07T16:40:31.574Z,64.52
2023-02-07T16:44:38.258Z,56.96
2023-02-07T16:48:28.912Z,54.23
2023-02-07T16:52:20.854Z,56.32
2023-02-07T16:56:12.759Z,57.64
2023-02-07T17:00:01.571Z,58.77
2023-02-07T17:03:49.339Z,59.68
2023-02-07T17:07:39.224Z,60.47
2023-02-07T17:11:30.594Z,61.39
2023-02-07T17:15:19.189Z,71.35
2023-02-07T17:18:54.061Z,64.85
2023-02-07T17:22:43.459Z,55.70
2023-02-07T17:26:32.273Z,54.42
2023-02-07T17:30:07.713Z,56.58
2023-02-07T17:33:59.230Z,58.12
2023-02-07T17:37:35.135Z,59.26
2023-02-07T17:40:06.685Z,60.13
2023-02-07T17:43:35.048Z,61.23
2023-02-07T17:46:07.523Z,61.46
2023-02-07T17:49:41.551Z,66.39
2023-02-07T17:53:33.083Z,67.02
2023-02-07T17:57:12.205Z,58.42
2023-02-07T18:00:38.370Z,53.67
2023-02-07T18:04:34.672Z,55.63
2023-02-07T18:08:24.391Z,56.33
2023-02-07T18:11:53.507Z,57.04
2023-02-07T18:15:42.902Z,58.95
2023-02-07T18:19:33.682Z,59.44
2023-02-07T18:23:23.761Z,61.03
2023-02-07T18:27:20.404Z,71.22
2023-02-07T18:31:09.720Z,64.22
2023-02-07T18:35:01.037Z,54.08
2023-02-07T18:38:53.028Z,54.69
2023-02-07T18:42:47.544Z,55.49
2023-02-07T18:46:20.470Z,58.43
2023-02-07T18:50:22.515Z,59.66
2023-02-07T18:58:08.792Z,63.41
2023-02-07T19:02:06.625Z,70.23
2023-02-07T19:06:03.404Z,61.32
2023-02-07T19:09:55.899Z,53.04
2023-02-07T19:13:31.384Z,54.54
2023-02-07T19:17:00.275Z,56.65
2023-02-07T19:20:29.432Z,58.07
2023-02-07T19:24:22.387Z,59.02
2023-02-07T19:28:15.434Z,60.28
2023-02-07T19:32:06.874Z,61.12
2023-02-07T19:36:00.416Z,70.65
2023-02-07T19:39:51.708Z,64.72
2023-02-07T19:43:45.401Z,55.14
2023-02-07T19:47:37.273Z,53.34
2023-02-07T19:51:33.464Z,55.79
2023-02-07T19:55:07.446Z,57.71
2023-02-07T19:58:58.882Z,58.14
2023-02-07T20:02:54.661Z,60.10
2023-02-07T20:06:49.336Z,60.77
2023-02-07T20:10:33.583Z,71.50
2023-02-07T20:14:10.399Z,64.67
2023-02-07T20:18:00.214Z,53.88
2023-02-07T20:21:52.178Z,54.84
2023-02-07T20:25:41.414Z,57.22
2023-02-07T20:29:34.283Z,58.50
2023-02-07T20:33:23.918Z,59.71
2023-02-07T20:36:54.983Z,60.38
2023-02-07T20:40:49.602Z,60.66
2023-02-07T20:44:43.171Z,71.15
2023-02-07T20:48:34.176Z,64.16
2023-02-07T20:52:23.105Z,55.13
2023-02-07T20:55:52.926Z,54.25
2023-02-07T20:59:47.038Z,56.75
2023-02-07T21:03:35.219Z,58.28
2023-02-07T21:07:24.890Z,59.30
2023-02-07T21:10:55.338Z,60.57
2023-02-07T21:14:45.189Z,60.52
2023-02-07T21:22:20.060Z,64.40
2023-02-07T21:26:09.594Z,54.82
2023-02-07T21:30:01.118Z,53.69
2023-02-07T21:33:50.148Z,56.74
2023-02-07T21:37:39.551Z,58.61
2023-02-07T21:41:29.990Z,59.96
2023-02-07T21:45:18.280Z,60.79
2023-02-07T21:49:06.451Z,61.68
2023-02-07T21:52:56.521Z,70.80
2023-02-07T21:56:46.678Z,66.58
2023-02-07T22:00:38.114Z,55.10
2023-02-07T22:04:27.194Z,53.93
2023-02-07T22:08:15.205Z,56.48
2023-02-07T22:12:09.216Z,58.56
2023-02-07T22:15:56.900Z,60.01
2023-02-07T22:19:45.398Z,61.05
2023-02-07T22:23:33.439Z,69.30
2023-02-07T22:27:21.520Z,64.36
2023-02-07T22:31:10.262Z,58.28
2023-02-07T22:34:57.913Z,54.42
2023-02-07T22:38:45.778Z,56.98
2023-02-07T22:42:34.610Z,58.43
2023-02-07T22:46:25.052Z,58.15
2023-02-07T22:50:13.960Z,59.88
2023-02-07T22:54:03.622Z,60.80
2023-02-07T22:57:51.329Z,70.16
2023-02-07T23:01:39.464Z,66.24
2023-02-07T23:05:28.664Z,60.12
2023-02-07T23:09:15.566Z,54.67
2023-02-07T23:13:05.911Z,56.61
2023-02-07T23:16:54.052Z,57.94
2023-02-07T23:20:42.255Z,59.64
2023-02-07T23:24:33.071Z,60.83
2023-02-07T23:28:22.181Z,60.90
2023-02-07T23:32:09.701Z,71.59
2023-02-07T23:35:58.917Z,65.20
2023-02-07T23:39:48.048Z,58.75
2023-02-07T23:43:38.309Z,54.67
2023-02-07T23:47:26.478Z,57.19
2023-02-07T23:51:15.429Z,57.93
2023-02-07T23:55:04.110Z,60.26
2023-02-07T23:58:54.558Z,60.94
